createdAt,value
2019-02-27T00:00:11.991Z,72.94
2019-02-27T00:01:11.908Z,72.22
2019-02-27T00:02:11.892Z,72.11
2019-02-27T00:03:11.886Z,71.70
2019-02-27T00:04:11.862Z,71.59
2019-02-27T00:05:11.883Z,72.32
2019-02-27T00:06:12.889Z,72.15
2019-02-27T00:07:11.833Z,71.70
2019-02-27T00:08:11.834Z,72.22
2019-02-27T00:09:11.811Z,72.15
2019-02-27T00:10:11.824Z,72.15
2019-02-27T00:11:12.332Z,72.15
2019-02-27T00:12:11.788Z,72.77
2019-02-27T00:13:11.767Z,72.67
2019-02-27T00:14:11.766Z,72.98
2019-02-27T00:15:11.745Z,72.67
2019-02-27T00:16:11.759Z,72.46
2019-02-27T00:17:11.731Z,72.88
2019-02-27T00:18:11.719Z,72.25
2019-02-27T00:19:11.698Z,72.05
2019-02-27T00:20:11.688Z,72.25
2019-02-27T00:21:11.734Z,72.01
2019-02-27T00:22:11.677Z,71.73
2019-02-27T00:23:11.683Z,72.15
2019-02-27T00:24:11.678Z,72.11
2019-02-27T00:25:11.646Z,71.63
2019-02-27T00:26:11.631Z,71.94
2019-02-27T00:27:14.583Z,72.05
2019-02-27T00:28:11.607Z,72.46
2019-02-27T00:29:11.611Z,71.97
2019-02-27T00:30:11.599Z,72.08
2019-02-27T00:31:12.075Z,72.11
2019-02-27T00:32:11.637Z,72.63
2019-02-27T00:33:11.554Z,73.05
2019-02-27T00:34:11.556Z,73.18
2019-02-27T00:35:11.547Z,73.36
2019-02-27T00:36:12.236Z,73.49
2019-02-27T00:37:11.522Z,72.97
2019-02-27T00:38:11.495Z,73.08
2019-02-27T00:39:11.485Z,73.39
2019-02-27T00:40:11.505Z,73.60
2019-02-27T00:41:12.827Z,74.22
2019-02-27T00:42:11.453Z,74.32
2019-02-27T00:43:11.443Z,74.11
2019-02-27T00:44:11.440Z,74.11
2019-02-27T00:45:11.418Z,74.11
2019-02-27T00:46:13.337Z,74.11
2019-02-27T00:47:11.405Z,74.29
2019-02-27T00:48:11.384Z,74.22
2019-02-27T00:49:11.375Z,73.25
2019-02-27T00:50:11.381Z,73.77
2019-02-27T00:51:11.955Z,73.36
2019-02-27T00:52:11.352Z,73.88
2019-02-27T00:53:11.347Z,73.46
2019-02-27T00:54:11.328Z,73.36
2019-02-27T00:55:11.311Z,73.25
2019-02-27T00:56:12.166Z,73.77
2019-02-27T00:57:11.292Z,73.25
2019-02-27T00:58:11.284Z,73.36
2019-02-27T00:59:11.296Z,72.94
2019-02-27T01:00:11.280Z,73.88
2019-02-27T01:01:12.798Z,74.11
2019-02-27T01:02:11.257Z,75.36
2019-02-27T01:03:11.222Z,74.63
2019-02-27T01:04:11.218Z,74.32
2019-02-27T01:05:11.207Z,74.95
2019-02-27T01:06:12.257Z,74.63
2019-02-27T01:07:11.192Z,75.15
2019-02-27T01:08:11.166Z,74.95
2019-02-27T01:09:11.153Z,74.84
2019-02-27T01:10:12.286Z,74.74
2019-02-27T01:11:11.131Z,75.15
2019-02-27T01:12:11.153Z,75.26
2019-02-27T01:13:11.110Z,75.15
2019-02-27T01:14:11.105Z,75.46
2019-02-27T01:15:11.313Z,75.57
2019-02-27T01:16:11.078Z,75.46
2019-02-27T01:17:11.109Z,75.46
2019-02-27T01:18:11.061Z,75.05
2019-02-27T01:19:11.050Z,74.84
2019-02-27T01:20:11.937Z,74.63
2019-02-27T01:21:11.062Z,75.02
2019-02-27T01:22:11.037Z,75.23
2019-02-27T01:23:11.613Z,74.91
2019-02-27T01:24:11.004Z,74.40
2019-02-27T01:25:10.986Z,74.40
2019-02-27T01:26:10.973Z,73.88
2019-02-27T01:27:10.957Z,73.77
2019-02-27T01:28:11.649Z,74.19
2019-02-27T01:29:10.971Z,73.67
2019-02-27T01:30:10.923Z,73.46
2019-02-27T01:31:10.914Z,73.80
2019-02-27T01:32:10.908Z,73.49
2019-02-27T01:33:10.925Z,74.22
2019-02-27T01:34:11.330Z,74.01
2019-02-27T01:35:10.886Z,74.22
2019-02-27T01:36:10.863Z,74.43
2019-02-27T01:37:10.846Z,74.32
2019-02-27T01:38:10.851Z,74.43
2019-02-27T01:39:11.376Z,74.32
2019-02-27T01:40:10.814Z,74.22
2019-02-27T01:41:10.811Z,74.15
2019-02-27T01:42:10.794Z,73.43
2019-02-27T01:43:10.809Z,74.05
2019-02-27T01:44:11.200Z,74.46
2019-02-27T01:45:10.761Z,74.36
2019-02-27T01:46:10.754Z,74.91
2019-02-27T01:47:10.741Z,73.77
2019-02-27T01:48:10.729Z,74.60
2019-02-27T01:49:10.768Z,74.91
2019-02-27T01:50:10.713Z,74.36
2019-02-27T01:51:10.693Z,74.08
2019-02-27T01:52:11.136Z,73.35
2019-02-27T01:53:10.672Z,74.67
2019-02-27T01:54:12.233Z,74.57
2019-02-27T01:55:10.679Z,74.26
2019-02-27T01:56:10.655Z,74.67
2019-02-27T01:57:10.647Z,74.05
2019-02-27T01:58:10.622Z,73.43
2019-02-27T01:59:10.612Z,72.80
2019-02-27T02:00:10.611Z,73.11
2019-02-27T02:01:10.589Z,73.18
2019-02-27T02:02:10.573Z,72.28
2019-02-27T02:03:11.243Z,73.11
2019-02-27T02:04:10.550Z,73.00
2019-02-27T02:05:10.574Z,72.28
2019-02-27T02:06:10.530Z,73.11
2019-02-27T02:07:10.527Z,72.59
2019-02-27T02:08:13.612Z,72.80
2019-02-27T02:09:10.496Z,72.07
2019-02-27T02:10:10.488Z,72.38
2019-02-27T02:11:10.506Z,73.14
2019-02-27T02:12:10.462Z,73.11
2019-02-27T02:13:14.937Z,73.14
2019-02-27T02:14:10.448Z,73.11
2019-02-27T02:15:10.428Z,72.80
2019-02-27T02:16:10.448Z,72.07
2019-02-27T02:17:10.414Z,72.90
2019-02-27T02:18:11.890Z,73.43
2019-02-27T02:19:10.388Z,72.69
2019-02-27T02:20:10.385Z,73.53
2019-02-27T02:21:10.403Z,72.77
2019-02-27T02:22:10.350Z,71.66
2019-02-27T02:23:13.968Z,71.86
2019-02-27T02:24:10.330Z,72.59
2019-02-27T02:25:10.335Z,72.59
2019-02-27T02:26:10.325Z,73.32
2019-02-27T02:27:10.326Z,73.11
2019-02-27T02:28:12.071Z,72.49
2019-02-27T02:29:10.277Z,72.59
2019-02-27T02:30:10.267Z,72.83
2019-02-27T02:31:10.258Z,73.22
2019-02-27T02:32:10.267Z,73.11
2019-02-27T02:33:10.240Z,73.14
2019-02-27T02:34:10.230Z,72.38
2019-02-27T02:35:14.631Z,73.11
2019-02-27T02:36:11.208Z,73.46
2019-02-27T02:37:10.210Z,73.04
2019-02-27T02:38:12.566Z,72.83
2019-02-27T02:39:10.176Z,73.11
2019-02-27T02:40:10.160Z,73.77
2019-02-27T02:41:10.144Z,73.53
2019-02-27T02:42:10.205Z,73.53
2019-02-27T02:43:10.133Z,73.00
2019-02-27T02:44:10.110Z,73.22
2019-02-27T02:45:10.098Z,72.07
2019-02-27T02:46:10.087Z,71.76
2019-02-27T02:47:10.078Z,71.80
2019-02-27T02:48:10.088Z,72.11
2019-02-27T02:49:10.056Z,72.11
2019-02-27T02:50:10.051Z,72.66
2019-02-27T02:51:10.035Z,73.18
2019-02-27T02:52:10.041Z,74.11
2019-02-27T02:53:10.048Z,73.49
2019-02-27T02:54:10.014Z,73.73
2019-02-27T02:55:12.518Z,73.63
2019-02-27T02:56:09.983Z,73.49
2019-02-27T02:57:09.971Z,72.97
2019-02-27T02:58:11.382Z,73.18
2019-02-27T02:59:09.977Z,73.91
2019-02-27T03:00:09.944Z,73.39
2019-02-27T03:01:14.047Z,73.18
2019-02-27T03:02:10.915Z,73.28
2019-02-27T03:03:09.901Z,72.97
2019-02-27T03:04:12.818Z,72.86
2019-02-27T03:05:09.883Z,72.45
2019-02-27T03:06:09.875Z,72.45
2019-02-27T03:07:10.944Z,72.66
2019-02-27T03:08:09.846Z,73.07
2019-02-27T03:09:09.839Z,73.21
2019-02-27T03:10:09.861Z,73.11
2019-02-27T03:11:09.818Z,73.21
2019-02-27T03:12:09.812Z,73.63
2019-02-27T03:13:09.798Z,73.42
2019-02-27T03:14:09.783Z,73.52
2019-02-27T03:15:09.801Z,74.25
2019-02-27T03:16:09.760Z,73.83
2019-02-27T03:17:09.753Z,74.01
2019-02-27T03:18:09.764Z,73.39
2019-02-27T03:19:09.759Z,73.39
2019-02-27T03:20:09.716Z,73.60
2019-02-27T03:21:09.740Z,72.63
2019-02-27T03:22:09.695Z,72.03
2019-02-27T03:23:15.349Z,71.72
2019-02-27T03:24:10.694Z,71.72
2019-02-27T03:25:09.661Z,72.49
2019-02-27T03:26:09.682Z,73.21
2019-02-27T03:27:09.634Z,73.32
2019-02-27T03:28:09.631Z,73.63
2019-02-27T03:29:15.506Z,73.63
2019-02-27T03:30:10.644Z,73.66
2019-02-27T03:31:16.277Z,73.63
2019-02-27T03:32:10.615Z,73.66
2019-02-27T03:33:09.576Z,73.94
2019-02-27T03:34:09.615Z,74.04
2019-02-27T03:35:09.574Z,74.98
2019-02-27T03:36:09.549Z,74.60
2019-02-27T03:37:13.167Z,75.22
2019-02-27T03:38:09.524Z,75.43
2019-02-27T03:39:09.506Z,75.32
2019-02-27T03:40:11.757Z,75.54
2019-02-27T03:41:09.515Z,75.12
2019-02-27T03:42:09.507Z,74.77
2019-02-27T03:43:10.451Z,75.50
2019-02-27T03:44:09.469Z,75.60
2019-02-27T03:45:09.457Z,75.85
2019-02-27T03:46:09.473Z,75.19
2019-02-27T03:47:15.619Z,74.77
2019-02-27T03:48:10.399Z,74.57
2019-02-27T03:49:09.397Z,75.92
2019-02-27T03:50:14.632Z,75.19
2019-02-27T03:51:10.378Z,75.64
2019-02-27T03:52:09.386Z,75.40
2019-02-27T03:53:11.236Z,75.29
2019-02-27T03:54:09.333Z,75.09
2019-02-27T03:55:09.323Z,75.19
2019-02-27T03:56:10.008Z,75.29
2019-02-27T03:57:09.306Z,74.95
2019-02-27T03:58:09.311Z,74.57
2019-02-27T03:59:09.282Z,74.57
2019-02-27T04:00:09.321Z,73.80
2019-02-27T04:01:09.266Z,74.46
2019-02-27T04:02:09.255Z,74.57
2019-02-27T04:03:09.263Z,74.04
2019-02-27T04:04:09.234Z,73.83
2019-02-27T04:05:09.221Z,74.77
2019-02-27T04:06:09.215Z,74.88
2019-02-27T04:07:09.198Z,74.98
2019-02-27T04:08:09.229Z,74.98
2019-02-27T04:09:09.182Z,75.09
2019-02-27T04:10:09.167Z,75.29
2019-02-27T04:11:09.151Z,75.50
2019-02-27T04:12:09.166Z,75.09
2019-02-27T04:13:09.199Z,75.32
2019-02-27T04:14:09.141Z,75.32
2019-02-27T04:15:09.116Z,75.43
2019-02-27T04:16:09.102Z,75.85
2019-02-27T04:17:09.088Z,75.74
2019-02-27T04:18:09.093Z,75.74
2019-02-27T04:19:09.084Z,76.06
2019-02-27T04:20:14.652Z,75.95
2019-02-27T04:21:10.042Z,75.95
2019-02-27T04:22:09.042Z,75.78
2019-02-27T04:23:12.471Z,76.82
2019-02-27T04:24:09.033Z,76.72
2019-02-27T04:25:08.996Z,76.86
2019-02-27T04:26:08.986Z,76.65
2019-02-27T04:27:08.976Z,76.86
2019-02-27T04:28:08.966Z,76.75
2019-02-27T04:29:08.979Z,76.75
2019-02-27T04:30:09.005Z,76.86
2019-02-27T04:31:08.932Z,76.86
2019-02-27T04:32:09.516Z,75.71
2019-02-27T04:33:08.941Z,75.92
2019-02-27T04:34:08.897Z,76.16
2019-02-27T04:35:08.901Z,75.74
2019-02-27T04:36:12.441Z,75.64
2019-02-27T04:37:08.861Z,75.29
2019-02-27T04:38:08.865Z,75.40
2019-02-27T04:39:08.844Z,75.92
2019-02-27T04:40:10.828Z,76.02
2019-02-27T04:41:08.820Z,75.60
2019-02-27T04:42:08.836Z,75.29
2019-02-27T04:43:08.802Z,75.40
2019-02-27T04:44:08.788Z,75.40
2019-02-27T04:45:09.843Z,75.29
2019-02-27T04:46:08.793Z,75.92
2019-02-27T04:47:08.761Z,76.92
2019-02-27T04:48:08.744Z,75.50
2019-02-27T04:49:08.735Z,75.29
2019-02-27T04:50:10.853Z,75.29
2019-02-27T04:51:08.740Z,75.71
2019-02-27T04:52:08.707Z,75.60
2019-02-27T04:53:08.691Z,75.78
2019-02-27T04:54:08.680Z,75.88
2019-02-27T04:55:08.700Z,74.63
2019-02-27T04:56:08.709Z,74.74
2019-02-27T04:57:08.658Z,73.90
2019-02-27T04:58:09.543Z,74.84
2019-02-27T04:59:08.624Z,74.63
2019-02-27T05:00:08.614Z,75.57
2019-02-27T05:01:08.606Z,74.74
2019-02-27T05:02:08.619Z,74.74
2019-02-27T05:03:08.581Z,74.74
2019-02-27T05:04:08.573Z,74.84
2019-02-27T05:05:09.161Z,74.74
2019-02-27T05:06:08.555Z,74.84
2019-02-27T05:07:08.565Z,74.74
2019-02-27T05:08:08.531Z,74.66
2019-02-27T05:09:08.525Z,74.74
2019-02-27T05:10:08.506Z,74.66
2019-02-27T05:11:08.497Z,74.77
2019-02-27T05:12:08.515Z,75.19
2019-02-27T05:13:08.479Z,74.77
2019-02-27T05:14:08.475Z,74.66
2019-02-27T05:15:08.449Z,74.60
2019-02-27T05:16:08.439Z,75.53
2019-02-27T05:17:08.455Z,75.85
2019-02-27T05:18:08.416Z,75.64
2019-02-27T05:19:08.411Z,75.43
2019-02-27T05:20:11.672Z,75.32
2019-02-27T05:21:08.386Z,75.53
2019-02-27T05:22:08.375Z,75.74
2019-02-27T05:23:08.380Z,75.85
2019-02-27T05:24:08.661Z,75.64
2019-02-27T05:25:08.349Z,75.95
2019-02-27T05:26:08.355Z,76.86
2019-02-27T05:27:08.340Z,77.06
2019-02-27T05:28:08.324Z,76.65
2019-02-27T05:29:08.301Z,76.30
2019-02-27T05:30:12.057Z,76.02
2019-02-27T05:31:08.286Z,75.67
2019-02-27T05:32:08.268Z,75.78
2019-02-27T05:33:08.289Z,75.98
2019-02-27T05:34:12.722Z,76.20
2019-02-27T05:35:09.241Z,75.57
2019-02-27T05:36:08.223Z,75.98
2019-02-27T05:37:08.216Z,76.09
2019-02-27T05:38:08.200Z,76.16
2019-02-27T05:39:08.214Z,75.78
2019-02-27T05:40:08.184Z,75.78
2019-02-27T05:41:08.168Z,75.95
2019-02-27T05:42:08.167Z,75.85
2019-02-27T05:43:08.142Z,75.95
2019-02-27T05:44:08.154Z,75.88
2019-02-27T05:45:08.121Z,75.85
2019-02-27T05:46:08.112Z,75.85
2019-02-27T05:47:08.631Z,75.64
2019-02-27T05:48:08.101Z,75.32
2019-02-27T05:49:08.125Z,75.01
2019-02-27T05:50:08.078Z,75.22
2019-02-27T05:51:08.537Z,75.64
2019-02-27T05:52:08.052Z,75.22
2019-02-27T05:53:08.040Z,75.64
2019-02-27T05:54:08.050Z,75.74
2019-02-27T05:55:08.050Z,75.32
2019-02-27T05:56:08.008Z,75.22
2019-02-27T05:57:07.996Z,75.43
2019-02-27T05:58:07.983Z,75.43
2019-02-27T05:59:08.007Z,75.32
2019-02-27T06:00:07.985Z,75.43
2019-02-27T06:01:07.955Z,75.32
2019-02-27T06:02:10.563Z,75.32
2019-02-27T06:03:07.954Z,74.80
2019-02-27T06:04:07.925Z,75.43
2019-02-27T06:05:07.959Z,74.80
2019-02-27T06:06:11.504Z,74.80
2019-02-27T06:07:07.886Z,74.95
2019-02-27T06:08:07.875Z,75.05
2019-02-27T06:09:09.993Z,74.63
2019-02-27T06:10:07.885Z,75.15
2019-02-27T06:11:07.856Z,75.15
2019-02-27T06:12:09.311Z,75.09
2019-02-27T06:13:07.818Z,75.50
2019-02-27T06:14:07.812Z,75.50
2019-02-27T06:15:07.809Z,75.60
2019-02-27T06:16:09.213Z,75.29
2019-02-27T06:17:10.178Z,75.09
2019-02-27T06:18:07.778Z,75.53
2019-02-27T06:19:07.754Z,75.32
2019-02-27T06:20:08.497Z,75.95
2019-02-27T06:21:07.730Z,76.78
2019-02-27T06:22:07.762Z,76.89
2019-02-27T06:23:07.715Z,76.78
2019-02-27T06:24:11.601Z,75.71
2019-02-27T06:25:07.714Z,75.95
2019-02-27T06:26:07.691Z,75.81
2019-02-27T06:27:07.669Z,75.60
2019-02-27T06:28:07.678Z,75.40
2019-02-27T06:29:07.643Z,74.98
2019-02-27T06:30:07.640Z,74.87
2019-02-27T06:31:07.621Z,74.87
2019-02-27T06:32:12.017Z,75.22
2019-02-27T06:33:11.573Z,75.01
2019-02-27T06:34:07.594Z,75.81
2019-02-27T06:35:07.580Z,75.74
2019-02-27T06:36:08.475Z,75.53
2019-02-27T06:37:07.561Z,75.64
2019-02-27T06:38:07.589Z,76.89
2019-02-27T06:39:08.732Z,76.78
2019-02-27T06:40:08.076Z,76.68
2019-02-27T06:41:07.515Z,75.85
2019-02-27T06:42:07.585Z,75.74
2019-02-27T06:43:07.492Z,76.96
2019-02-27T06:44:07.502Z,75.81
2019-02-27T06:45:07.473Z,75.40
2019-02-27T06:46:07.464Z,75.29
2019-02-27T06:47:07.463Z,74.74
2019-02-27T06:48:10.272Z,75.57
2019-02-27T06:49:07.483Z,75.60
2019-02-27T06:50:07.424Z,75.78
2019-02-27T06:51:07.422Z,75.78
2019-02-27T06:52:09.198Z,75.26
2019-02-27T06:53:07.415Z,74.95
2019-02-27T06:54:07.429Z,75.36
2019-02-27T06:55:07.364Z,75.46
2019-02-27T06:56:07.358Z,74.60
2019-02-27T06:57:07.798Z,74.60
2019-02-27T06:58:07.342Z,74.29
2019-02-27T06:59:07.334Z,74.70
2019-02-27T07:00:07.333Z,75.01
2019-02-27T07:01:09.805Z,75.64
2019-02-27T07:02:08.290Z,74.91
2019-02-27T07:03:07.286Z,74.49
2019-02-27T07:04:08.230Z,75.64
2019-02-27T07:05:07.279Z,75.12
2019-02-27T07:06:07.246Z,74.67
2019-02-27T07:07:07.240Z,75.50
2019-02-27T07:08:07.235Z,74.77
2019-02-27T07:09:11.379Z,74.77
2019-02-27T07:10:07.251Z,74.98
2019-02-27T07:11:10.942Z,74.77
2019-02-27T07:12:07.379Z,74.22
2019-02-27T07:13:07.172Z,73.80
2019-02-27T07:14:07.171Z,72.52
2019-02-27T07:15:07.150Z,71.59
2019-02-27T07:16:07.161Z,71.28
2019-02-27T07:17:07.134Z,70.83
2019-02-27T07:18:07.133Z,69.89
2019-02-27T07:19:07.116Z,69.76
2019-02-27T07:20:08.776Z,69.13
2019-02-27T07:21:07.108Z,68.10
2019-02-27T07:22:09.194Z,67.79
2019-02-27T07:23:07.073Z,68.20
2019-02-27T07:24:07.076Z,67.55
2019-02-27T07:25:07.245Z,67.65
2019-02-27T07:26:07.057Z,67.65
2019-02-27T07:27:07.020Z,67.65
2019-02-27T07:28:09.111Z,67.30
2019-02-27T07:29:07.033Z,67.55
2019-02-27T07:30:07.422Z,66.58
2019-02-27T07:31:06.985Z,66.78
2019-02-27T07:32:06.971Z,66.55
2019-02-27T07:33:07.368Z,66.06
2019-02-27T07:34:06.940Z,65.72
2019-02-27T07:35:06.971Z,66.35
2019-02-27T07:36:06.915Z,66.03
2019-02-27T07:37:06.908Z,65.62
2019-02-27T07:38:06.924Z,65.62
2019-02-27T07:39:06.887Z,65.80
2019-02-27T07:40:08.592Z,65.28
2019-02-27T07:41:06.872Z,65.10
2019-02-27T07:42:06.853Z,65.07
2019-02-27T07:43:06.846Z,64.97
2019-02-27T07:44:06.841Z,64.76
2019-02-27T07:45:08.094Z,65.25
2019-02-27T07:46:06.815Z,64.83
2019-02-27T07:47:06.806Z,64.42
2019-02-27T07:48:06.785Z,63.69
2019-02-27T07:49:06.810Z,64.73
2019-02-27T07:50:08.709Z,63.69
2019-02-27T07:51:06.804Z,63.59
2019-02-27T07:52:06.743Z,63.46
2019-02-27T07:53:06.743Z,62.94
2019-02-27T07:54:06.723Z,63.01
2019-02-27T07:55:18.445Z,62.49
2019-02-27T07:56:07.717Z,61.87
2019-02-27T07:57:06.687Z,61.98
2019-02-27T07:58:06.686Z,63.01
2019-02-27T07:59:06.743Z,62.29
2019-02-27T08:00:06.655Z,61.74
2019-02-27T08:01:06.666Z,61.33
2019-02-27T08:02:06.632Z,60.91
2019-02-27T08:03:09.233Z,60.99
2019-02-27T08:04:06.616Z,60.58
2019-02-27T08:05:06.645Z,60.47
2019-02-27T08:06:06.599Z,61.30
2019-02-27T08:07:06.593Z,60.16
2019-02-27T08:08:06.594Z,60.47
2019-02-27T08:09:06.572Z,60.16
2019-02-27T08:10:06.584Z,60.27
2019-02-27T08:11:06.541Z,60.44
2019-02-27T08:12:06.549Z,60.55
2019-02-27T08:13:06.526Z,60.34
2019-02-27T08:14:06.506Z,59.39
2019-02-27T08:15:06.524Z,59.18
2019-02-27T08:16:06.489Z,59.39
2019-02-27T08:17:17.012Z,59.39
2019-02-27T08:18:07.559Z,59.05
2019-02-27T08:19:08.910Z,58.53
2019-02-27T08:20:06.441Z,58.43
2019-02-27T08:21:06.449Z,58.74
2019-02-27T08:22:06.423Z,57.60
2019-02-27T08:23:06.968Z,57.81
2019-02-27T08:24:07.426Z,57.81
2019-02-27T08:25:06.387Z,56.85
2019-02-27T08:26:06.425Z,56.54
2019-02-27T08:27:07.099Z,56.85
2019-02-27T08:28:06.360Z,55.93
2019-02-27T08:29:06.342Z,55.38
2019-02-27T08:30:06.341Z,55.38
2019-02-27T08:31:06.323Z,55.38
2019-02-27T08:32:06.326Z,54.77
2019-02-27T08:33:08.420Z,54.66
2019-02-27T08:34:06.326Z,54.64
2019-02-27T08:35:06.281Z,54.12
2019-02-27T08:36:06.276Z,54.33
2019-02-27T08:37:06.261Z,54.53
2019-02-27T08:38:06.244Z,54.94
2019-02-27T08:39:06.255Z,54.82
2019-02-27T08:40:06.245Z,54.82
2019-02-27T08:41:06.220Z,53.89
2019-02-27T08:42:06.210Z,53.99
2019-02-27T08:43:06.229Z,54.20
2019-02-27T08:44:06.242Z,53.78
2019-02-27T08:45:06.175Z,53.76
2019-02-27T08:46:06.159Z,54.90
2019-02-27T08:47:07.801Z,54.07
2019-02-27T08:48:06.990Z,53.97
2019-02-27T08:49:06.162Z,53.56
2019-02-27T08:50:06.116Z,53.74
2019-02-27T08:51:08.620Z,53.63
2019-02-27T08:52:06.128Z,53.63
2019-02-27T08:53:06.086Z,53.50
2019-02-27T08:54:06.085Z,53.53
2019-02-27T08:55:06.259Z,53.33
2019-02-27T08:56:06.060Z,53.20
2019-02-27T08:57:06.063Z,51.76
2019-02-27T08:58:07.218Z,51.55
2019-02-27T08:59:06.151Z,51.42
2019-02-27T09:00:06.029Z,51.53
2019-02-27T09:01:06.039Z,50.29
2019-02-27T09:02:06.030Z,50.40
2019-02-27T09:03:05.973Z,50.29
2019-02-27T09:04:06.216Z,50.48
2019-02-27T09:05:05.978Z,49.04
2019-02-27T09:06:05.980Z,50.06
2019-02-27T09:07:05.934Z,48.93
2019-02-27T09:08:07.352Z,48.29
2019-02-27T09:09:07.900Z,48.81
2019-02-27T09:10:05.908Z,47.67
2019-02-27T09:11:06.836Z,48.07
2019-02-27T09:12:05.934Z,47.88
2019-02-27T09:13:06.157Z,48.17
2019-02-27T09:14:05.859Z,48.17
2019-02-27T09:15:05.869Z,47.76
2019-02-27T09:16:05.838Z,47.74
2019-02-27T09:17:05.854Z,46.83
2019-02-27T09:18:05.808Z,47.42
2019-02-27T09:19:09.262Z,47.42
2019-02-27T09:20:05.793Z,46.81
2019-02-27T09:21:05.808Z,47.00
2019-02-27T09:22:05.793Z,46.89
2019-02-27T09:23:05.819Z,47.09
2019-02-27T09:24:05.781Z,47.09
2019-02-27T09:25:05.732Z,46.77
2019-02-27T09:26:05.783Z,47.00
2019-02-27T09:27:05.728Z,47.08
2019-02-27T09:28:08.789Z,46.56
2019-02-27T09:29:05.689Z,46.36
2019-02-27T09:30:05.686Z,46.05
2019-02-27T09:31:05.664Z,47.49
2019-02-27T09:32:05.706Z,46.95
2019-02-27T09:33:05.668Z,47.05
2019-02-27T09:34:05.946Z,47.05
2019-02-27T09:35:05.671Z,46.75
2019-02-27T09:36:07.961Z,45.83
2019-02-27T09:37:05.677Z,45.42
2019-02-27T09:38:05.639Z,45.83
2019-02-27T09:39:05.585Z,45.31
2019-02-27T09:40:05.907Z,45.09
2019-02-27T09:41:05.809Z,45.18
2019-02-27T09:42:05.583Z,45.09
2019-02-27T09:43:06.284Z,45.09
2019-02-27T09:44:05.551Z,45.68
2019-02-27T09:45:05.519Z,45.70
2019-02-27T09:46:05.509Z,45.17
2019-02-27T09:47:05.516Z,45.27
2019-02-27T09:48:05.559Z,45.27
2019-02-27T09:49:07.085Z,44.65
2019-02-27T09:50:08.473Z,44.86
2019-02-27T09:51:05.448Z,44.65
2019-02-27T09:52:05.439Z,44.96
2019-02-27T09:53:05.443Z,45.56
2019-02-27T09:54:05.423Z,45.15
2019-02-27T09:55:05.423Z,44.94
2019-02-27T09:56:05.400Z,44.73
2019-02-27T09:57:05.379Z,45.56
2019-02-27T09:58:10.076Z,45.02
2019-02-27T09:59:06.360Z,45.56
2019-02-27T10:00:05.499Z,44.94
2019-02-27T10:01:05.341Z,44.10
2019-02-27T10:02:06.326Z,44.00
2019-02-27T10:03:05.315Z,43.90
2019-02-27T10:04:05.355Z,44.10
2019-02-27T10:05:05.297Z,44.51
2019-02-27T10:06:05.294Z,44.82
2019-02-27T10:07:05.314Z,44.51
2019-02-27T10:08:05.288Z,45.00
2019-02-27T10:09:05.259Z,44.38
2019-02-27T10:10:05.262Z,44.79
2019-02-27T10:11:05.234Z,44.90
2019-02-27T10:12:05.220Z,44.79
2019-02-27T10:13:05.211Z,45.51
2019-02-27T10:14:05.221Z,44.57
2019-02-27T10:15:05.228Z,44.67
2019-02-27T10:16:05.184Z,44.37
2019-02-27T10:17:06.735Z,44.98
2019-02-27T10:18:05.175Z,44.57
2019-02-27T10:19:05.151Z,44.37
2019-02-27T10:20:05.155Z,44.88
2019-02-27T10:21:05.125Z,44.24
2019-02-27T10:22:05.163Z,44.55
2019-02-27T10:23:05.115Z,43.84
2019-02-27T10:24:05.486Z,43.84
2019-02-27T10:25:05.096Z,44.04
2019-02-27T10:26:05.063Z,44.45
2019-02-27T10:27:05.057Z,45.35
2019-02-27T10:28:05.068Z,44.32
2019-02-27T10:29:05.031Z,44.04
2019-02-27T10:30:11.318Z,44.32
2019-02-27T10:31:06.011Z,44.94
2019-02-27T10:32:05.004Z,44.63
2019-02-27T10:33:05.022Z,44.73
2019-02-27T10:34:04.985Z,45.04
2019-02-27T10:35:04.964Z,43.18
2019-02-27T10:36:04.959Z,43.59
2019-02-27T10:37:05.040Z,43.29
2019-02-27T10:38:04.981Z,43.49
2019-02-27T10:39:04.921Z,43.59
2019-02-27T10:40:04.914Z,44.10
2019-02-27T10:41:04.964Z,42.67
2019-02-27T10:42:04.912Z,44.20
2019-02-27T10:43:04.904Z,42.65
2019-02-27T10:44:04.870Z,43.47
2019-02-27T10:45:04.861Z,43.88
2019-02-27T10:46:04.846Z,43.06
2019-02-27T10:47:04.903Z,43.47
2019-02-27T10:48:04.829Z,43.26
2019-02-27T10:49:04.839Z,42.73
2019-02-27T10:50:04.804Z,42.94
2019-02-27T10:51:04.795Z,42.63
2019-02-27T10:52:04.808Z,42.02
2019-02-27T10:53:04.774Z,42.94
2019-02-27T10:54:05.472Z,43.04
2019-02-27T10:55:04.759Z,42.73
2019-02-27T10:56:04.739Z,42.83
2019-02-27T10:57:05.967Z,42.83
2019-02-27T10:58:04.716Z,42.41
2019-02-27T10:59:04.744Z,42.00
2019-02-27T11:00:04.704Z,42.41
2019-02-27T11:01:04.691Z,42.61
2019-02-27T11:02:04.671Z,42.21
2019-02-27T11:03:04.677Z,41.89
2019-02-27T11:04:04.687Z,42.39
2019-02-27T11:05:04.651Z,41.67
2019-02-27T11:06:04.632Z,42.29
2019-02-27T11:07:04.614Z,42.08
2019-02-27T11:08:04.601Z,42.49
2019-02-27T11:09:05.271Z,41.27
2019-02-27T11:10:04.605Z,42.18
2019-02-27T11:11:04.572Z,43.00
2019-02-27T11:12:04.562Z,41.98
2019-02-27T11:13:06.796Z,39.64
2019-02-27T11:14:04.565Z,40.35
2019-02-27T11:15:04.542Z,40.74
2019-02-27T11:16:04.529Z,39.92
2019-02-27T11:17:04.512Z,40.12
2019-02-27T11:18:05.847Z,39.72
2019-02-27T11:19:04.496Z,39.51
2019-02-27T11:20:04.518Z,39.31
2019-02-27T11:21:04.462Z,39.92
2019-02-27T11:22:04.458Z,39.42
2019-02-27T11:23:07.172Z,39.80
2019-02-27T11:24:04.425Z,38.68
2019-02-27T11:25:04.439Z,38.68
2019-02-27T11:26:04.408Z,38.89
2019-02-27T11:27:06.171Z,38.58
2019-02-27T11:28:04.400Z,37.97
2019-02-27T11:29:04.397Z,37.87
2019-02-27T11:30:04.391Z,38.76
2019-02-27T11:31:04.354Z,38.89
2019-02-27T11:32:04.348Z,39.40
2019-02-27T11:33:04.333Z,39.09
2019-02-27T11:34:05.050Z,39.07
2019-02-27T11:35:04.341Z,38.36
2019-02-27T11:36:05.670Z,37.95
2019-02-27T11:37:04.423Z,38.15
2019-02-27T11:38:04.293Z,39.17
2019-02-27T11:39:04.841Z,37.75
2019-02-27T11:40:05.369Z,36.73
2019-02-27T11:41:04.270Z,36.92
2019-02-27T11:42:04.252Z,37.95
2019-02-27T11:43:06.978Z,37.32
2019-02-27T11:44:04.223Z,37.02
2019-02-27T11:45:04.205Z,35.29
2019-02-27T11:46:04.225Z,36.00
2019-02-27T11:47:04.179Z,36.61
2019-02-27T11:48:04.182Z,35.48
2019-02-27T11:49:04.152Z,35.58
2019-02-27T11:50:04.153Z,35.58
2019-02-27T11:51:04.168Z,35.07
2019-02-27T11:52:04.157Z,34.46
2019-02-27T11:53:04.149Z,35.07
2019-02-27T11:54:04.335Z,35.27
2019-02-27T11:55:04.112Z,35.17
2019-02-27T11:56:04.080Z,34.77
2019-02-27T11:57:04.089Z,35.07
2019-02-27T11:58:05.416Z,35.77
2019-02-27T11:59:04.044Z,35.07
2019-02-27T12:00:04.052Z,35.48
2019-02-27T12:01:04.026Z,35.88
2019-02-27T12:02:04.045Z,35.17
2019-02-27T12:03:04.011Z,35.48
2019-02-27T12:04:03.993Z,35.48
2019-02-27T12:05:03.986Z,35.58
2019-02-27T12:06:05.326Z,35.88
2019-02-27T12:07:03.966Z,35.86
2019-02-27T12:08:03.983Z,35.38
2019-02-27T12:09:04.875Z,34.66
2019-02-27T12:10:06.539Z,34.65
2019-02-27T12:11:03.936Z,35.58
2019-02-27T12:12:03.908Z,35.77
2019-02-27T12:13:03.893Z,36.38
2019-02-27T12:14:06.554Z,36.78
2019-02-27T12:15:06.737Z,36.47
2019-02-27T12:16:03.891Z,35.97
2019-02-27T12:17:03.861Z,36.38
2019-02-27T12:18:03.841Z,35.86
2019-02-27T12:19:06.383Z,34.85
2019-02-27T12:20:03.831Z,35.16
2019-02-27T12:21:03.825Z,34.75
2019-02-27T12:22:03.799Z,34.65
2019-02-27T12:23:03.788Z,36.17
2019-02-27T12:24:05.358Z,35.16
2019-02-27T12:25:03.784Z,34.75
2019-02-27T12:26:03.802Z,35.97
2019-02-27T12:27:03.742Z,35.56
2019-02-27T12:28:03.744Z,36.17
2019-02-27T12:29:03.724Z,36.07
2019-02-27T12:30:04.052Z,35.56
2019-02-27T12:31:03.736Z,34.85
2019-02-27T12:32:03.695Z,35.46
2019-02-27T12:33:03.686Z,35.14
2019-02-27T12:34:03.674Z,35.34
2019-02-27T12:35:03.660Z,34.75
2019-02-27T12:36:03.643Z,35.75
2019-02-27T12:37:03.665Z,34.63
2019-02-27T12:38:07.132Z,35.24
2019-02-27T12:39:03.614Z,36.05
2019-02-27T12:40:03.607Z,35.55
2019-02-27T12:41:03.592Z,36.05
2019-02-27T12:42:04.185Z,37.17
2019-02-27T12:43:03.582Z,37.27
2019-02-27T12:44:03.557Z,36.05
2019-02-27T12:45:03.549Z,36.46
2019-02-27T12:46:03.547Z,36.16
2019-02-27T12:47:05.585Z,36.05
2019-02-27T12:48:03.517Z,35.95
2019-02-27T12:49:03.508Z,36.87
2019-02-27T12:50:03.497Z,37.17
2019-02-27T12:51:04.323Z,35.85
2019-02-27T12:52:03.483Z,36.76